Time;durP1;ratioP1;P1;durP2;ratioP2;P2;SDS_P1;SDS_P2;PMS_P1;PMS_P2;Temp;Humidity;BMP_temperature;BMP_pressure;BME280_temperature;BME280_humidity;BME280_pressure;Samples;Min_cycle;Max_cycle;Signal;HPM_P1;HPM_P2
2021/08/22 00:00:47;;;;;;;6.15;2.42;;;;;;;;;;5092918;28;20028;-76
2021/08/22 00:03:13;;;;;;;7.63;2.58;;;;;;;;;;5092776;28;20382;-74
2021/08/22 00:05:39;;;;;;;5.78;2.97;;;;;;;;;;5092484;28;20160;-73
2021/08/22 00:08:05;;;;;;;5.63;2.60;;;;;;;;;;5092513;28;20024;-75
2021/08/22 00:10:31;;;;;;;5.18;2.47;;;;;;;;;;5091276;28;20024;-74
2021/08/22 00:12:57;;;;;;;4.32;2.45;;;;;;;;;;5092437;28;20493;-74
2021/08/22 00:15:23;;;;;;;7.82;2.83;;;;;;;;;;5091139;28;20035;-74
2021/08/22 00:17:49;;;;;;;4.72;2.65;;;;;;;;;;5092319;28;20467;-74
2021/08/22 00:20:16;;;;;;;8.98;2.80;;;;;;;;;;5088185;28;20024;-76
2021/08/22 00:22:42;;;;;;;5.88;2.92;;;;;;;;;;5071080;28;20036;-77
2021/08/22 00:25:08;;;;;;;6.07;2.58;;;;;;;;;;5073277;28;20027;-77
2021/08/22 00:27:34;;;;;;;6.38;2.75;;;;;;;;;;5073031;28;20675;-78
2021/08/22 00:30:00;;;;;;;8.40;2.85;;;;;;;;;;5071589;28;20372;-78
2021/08/22 00:32:26;;;;;;;6.28;2.72;;;;;;;;;;5074008;28;20036;-77
2021/08/22 00:34:52;;;;;;;6.18;2.75;;;;;;;;;;5072424;28;20046;-76
2021/08/22 00:37:18;;;;;;;5.63;3.10;;;;;;;;;;5073536;28;20067;-75
2021/08/22 00:39:44;;;;;;;5.50;2.42;;;;;;;;;;5073738;28;20023;-76
2021/08/22 00:42:10;;;;;;;4.00;2.50;;;;;;;;;;5074136;28;20103;-76
2021/08/22 00:44:37;;;;;;;5.43;2.83;;;;;;;;;;5073449;28;20541;-76
2021/08/22 00:47:03;;;;;;;7.07;3.28;;;;;;;;;;5073548;28;20036;-75
2021/08/22 00:49:29;;;;;;;7.43;3.25;;;;;;;;;;5071861;28;20024;-75
2021/08/22 00:51:55;;;;;;;7.18;2.90;;;;;;;;;;5070532;28;20048;-77
2021/08/22 00:54:21;;;;;;;6.10;3.25;;;;;;;;;;5074829;28;20460;-77
2021/08/22 00:56:47;;;;;;;7.10;3.15;;;;;;;;;;5073992;28;20032;-76
2021/08/22 00:59:14;;;;;;;9.30;3.58;;;;;;;;;;5071890;28;20471;-76
2021/08/22 01:01:41;;;;;;;8.55;3.53;;;;;;;;;;5072921;28;20032;-76
2021/08/22 01:04:18;;;;;;;6.32;3.70;;;;;;;;;;5072697;28;20039;-77
2021/08/22 01:07:02;;;;;;;5.70;3.13;;;;;;;;;;5072697;28;20025;-77
2021/08/22 01:09:34;;;;;;;6.05;2.97;;;;;;;;;;5071848;28;20108;-77
2021/08/22 01:12:10;;;;;;;9.65;3.42;;;;;;;;;;5071927;28;20033;-76
2021/08/22 01:14:43;;;;;;;10.05;3.35;;;;;;;;;;5072039;28;20077;-79
2021/08/22 01:17:10;;;;;;;9.45;3.25;;;;;;;;;;5072161;28;20494;-76
2021/08/22 01:19:36;;;;;;;5.70;3.03;;;;;;;;;;5072818;28;20035;-76
2021/08/22 01:22:03;;;;;;;7.20;3.17;;;;;;;;;;5072662;28;20024;-76
2021/08/22 01:24:30;;;;;;;6.70;3.30;;;;;;;;;;5072521;28;20048;-75
2021/08/22 01:26:57;;;;;;;5.65;2.85;;;;;;;;;;5072685;28;20678;-76
2021/08/22 01:29:27;;;;;;;6.20;2.92;;;;;;;;;;5070930;28;20395;-77
2021/08/22 01:31:55;;;;;;;5.93;2.58;;;;;;;;;;5089668;28;20040;-76
2021/08/22 01:34:21;;;;;;;6.45;2.67;;;;;;;;;;5091025;28;20523;-76
2021/08/22 01:36:47;;;;;;;5.70;3.00;;;;;;;;;;5085278;28;20104;-77
2021/08/22 01:39:14;;;;;;;6.25;2.97;;;;;;;;;;5067356;28;20029;-75
2021/08/22 01:41:40;;;;;;;7.70;3.33;;;;;;;;;;5067614;28;20036;-76
2021/08/22 01:44:07;;;;;;;4.50;2.70;;;;;;;;;;5069906;28;20044;-76
2021/08/22 01:46:35;;;;;;;5.35;2.67;;;;;;;;;;5071259;28;20029;-76
2021/08/22 01:49:03;;;;;;;6.38;2.90;;;;;;;;;;5070080;28;20023;-75
2021/08/22 01:51:33;;;;;;;5.63;2.70;;;;;;;;;;5073167;28;20430;-76
2021/08/22 01:53:59;;;;;;;6.97;2.88;;;;;;;;;;5075114;28;20020;-76
2021/08/22 01:56:26;;;;;;;5.05;2.35;;;;;;;;;;5073321;28;20104;-76
2021/08/22 01:58:52;;;;;;;4.82;2.65;;;;;;;;;;5073716;28;20085;-76
2021/08/22 02:01:19;;;;;;;6.78;3.08;;;;;;;;;;5075087;28;20071;-76
2021/08/22 02:03:45;;;;;;;5.55;2.80;;;;;;;;;;5074290;28;20029;-79
2021/08/22 02:06:20;;;;;;;5.68;2.75;;;;;;;;;;5074727;28;20047;-77
2021/08/22 02:08:49;;;;;;;5.93;3.15;;;;;;;;;;5074979;28;20031;-77
2021/08/22 02:11:18;;;;;;;4.97;2.63;;;;;;;;;;5074756;28;20036;-79
2021/08/22 02:13:45;;;;;;;5.43;2.85;;;;;;;;;;5074806;28;20067;-80
2021/08/22 02:16:13;;;;;;;6.03;3.15;;;;;;;;;;5074765;28;20489;-77
2021/08/22 02:18:40;;;;;;;5.93;2.30;;;;;;;;;;5073198;28;20074;-78
2021/08/22 02:21:06;;;;;;;7.72;2.80;;;;;;;;;;5074667;28;20021;-76
2021/08/22 02:23:33;;;;;;;5.05;3.00;;;;;;;;;;5073136;28;20078;-76
2021/08/22 02:25:59;;;;;;;10.43;2.90;;;;;;;;;;5074412;28;20078;-77
2021/08/22 02:28:25;;;;;;;7.22;2.78;;;;;;;;;;5071151;28;20055;-75
2021/08/22 02:30:52;;;;;;;5.53;3.13;;;;;;;;;;5062984;28;20017;-77
2021/08/22 02:33:18;;;;;;;7.30;3.03;;;;;;;;;;5072769;28;20028;-75
2021/08/22 02:35:44;;;;;;;7.70;3.10;;;;;;;;;;5073722;28;20016;-76
2021/08/22 02:38:10;;;;;;;6.47;3.35;;;;;;;;;;5072738;28;20025;-76
2021/08/22 02:40:37;;;;;;;8.02;3.08;;;;;;;;;;5073967;28;20029;-76
2021/08/22 02:43:03;;;;;;;5.75;2.50;;;;;;;;;;5073550;28;20031;-78
2021/08/22 02:45:29;;;;;;;6.85;2.75;;;;;;;;;;5073602;28;20090;-79
2021/08/22 02:47:58;;;;;;;5.47;2.65;;;;;;;;;;5071986;28;20467;-77
2021/08/22 02:50:25;;;;;;;4.93;2.83;;;;;;;;;;5072016;28;20028;-78
2021/08/22 02:52:51;;;;;;;6.15;3.00;;;;;;;;;;5073632;28;20040;-77
2021/08/22 02:55:18;;;;;;;6.07;2.80;;;;;;;;;;5072292;28;20055;-77
2021/08/22 02:57:44;;;;;;;6.30;3.00;;;;;;;;;;5073327;28;20032;-84
2021/08/22 03:00:10;;;;;;;8.13;2.80;;;;;;;;;;5075252;28;20024;-85
2021/08/22 03:02:37;;;;;;;7.20;2.95;;;;;;;;;;5075953;28;20028;-84
2021/08/22 03:05:03;;;;;;;7.72;2.90;;;;;;;;;;5075742;28;20095;-78
2021/08/22 03:07:29;;;;;;;4.72;2.15;;;;;;;;;;5072009;28;20484;-76
2021/08/22 03:09:55;;;;;;;4.68;2.40;;;;;;;;;;5073129;28;20024;-77
2021/08/22 03:12:21;;;;;;;4.72;2.60;;;;;;;;;;5072914;28;20043;-77
2021/08/22 03:14:48;;;;;;;7.07;2.55;;;;;;;;;;5073231;28;20039;-77
2021/08/22 03:17:14;;;;;;;4.55;2.80;;;;;;;;;;5071860;28;20387;-79
2021/08/22 03:19:40;;;;;;;4.47;2.38;;;;;;;;;;5072047;28;20021;-76
2021/08/22 03:22:06;;;;;;;5.38;2.95;;;;;;;;;;5073152;28;20070;-77
2021/08/22 03:24:32;;;;;;;5.05;2.65;;;;;;;;;;5072843;28;20029;-76
2021/08/22 03:26:58;;;;;;;4.65;2.40;;;;;;;;;;5071585;28;20025;-76
2021/08/22 03:29:24;;;;;;;4.95;2.45;;;;;;;;;;5071496;28;20024;-76
2021/08/22 03:31:50;;;;;;;5.57;2.90;;;;;;;;;;5072463;28;20036;-76
2021/08/22 03:34:16;;;;;;;5.53;2.75;;;;;;;;;;5072501;28;20029;-78
2021/08/22 03:36:42;;;;;;;5.43;2.60;;;;;;;;;;5091917;28;20382;-77
2021/08/22 03:39:08;;;;;;;6.38;2.90;;;;;;;;;;5091852;28;20123;-80
2021/08/22 03:41:35;;;;;;;17.00;3.38;;;;;;;;;;5092061;28;20115;-80
2021/08/22 03:44:01;;;;;;;6.85;2.35;;;;;;;;;;5093021;28;20054;-79
2021/08/22 03:46:28;;;;;;;5.03;2.38;;;;;;;;;;5092956;28;20024;-80
2021/08/22 03:48:54;;;;;;;5.78;2.60;;;;;;;;;;5091500;28;20048;-79
2021/08/22 03:51:23;;;;;;;8.00;2.42;;;;;;;;;;5092401;28;20027;-80
2021/08/22 03:53:49;;;;;;;10.93;3.30;;;;;;;;;;5091341;28;20035;-79
2021/08/22 03:56:16;;;;;;;4.53;2.20;;;;;;;;;;5091529;28;20055;-80
2021/08/22 03:58:42;;;;;;;8.80;2.33;;;;;;;;;;5092735;28;20061;-80
2021/08/22 04:01:08;;;;;;;6.18;2.85;;;;;;;;;;5092827;28;20390;-79
2021/08/22 04:03:38;;;;;;;5.75;2.38;;;;;;;;;;5092447;28;20072;-79
2021/08/22 04:06:04;;;;;;;6.22;2.60;;;;;;;;;;5092520;28;20035;-79
2021/08/22 04:08:31;;;;;;;5.38;2.50;;;;;;;;;;5091214;28;20077;-79
2021/08/22 04:10:57;;;;;;;5.90;2.55;;;;;;;;;;5090603;28;20024;-79
2021/08/22 04:13:24;;;;;;;8.77;2.55;;;;;;;;;;5089989;28;20455;-79
2021/08/22 04:15:50;;;;;;;6.78;2.33;;;;;;;;;;5091009;28;20021;-79
2021/08/22 04:18:16;;;;;;;8.40;2.95;;;;;;;;;;5090947;28;20024;-79
2021/08/22 04:20:43;;;;;;;5.97;2.65;;;;;;;;;;5091171;28;20024;-80
2021/08/22 04:23:10;;;;;;;4.85;2.65;;;;;;;;;;5091644;28;20069;-81
2021/08/22 04:25:36;;;;;;;4.75;2.20;;;;;;;;;;5092241;28;20020;-79
2021/08/22 04:28:02;;;;;;;5.85;2.67;;;;;;;;;;5090750;28;20026;-78
2021/08/22 04:30:28;;;;;;;5.97;2.72;;;;;;;;;;5081567;28;20021;-79
2021/08/22 04:32:54;;;;;;;5.10;2.25;;;;;;;;;;5067010;28;20071;-79
2021/08/22 04:35:20;;;;;;;4.88;2.53;;;;;;;;;;5082667;28;20016;-78
2021/08/22 04:37:46;;;;;;;5.28;2.47;;;;;;;;;;5091649;28;20542;-78
2021/08/22 04:40:13;;;;;;;6.47;2.75;;;;;;;;;;5090410;28;20032;-79
2021/08/22 04:42:39;;;;;;;6.90;2.90;;;;;;;;;;5090499;28;20027;-78
2021/08/22 04:45:05;;;;;;;6.93;2.90;;;;;;;;;;5090734;28;20027;-78
2021/08/22 04:47:31;;;;;;;9.77;2.95;;;;;;;;;;5090539;28;20028;-78
2021/08/22 04:49:57;;;;;;;9.57;2.65;;;;;;;;;;5091743;28;20084;-78
2021/08/22 04:52:23;;;;;;;5.95;2.60;;;;;;;;;;5091339;28;20071;-79
2021/08/22 04:54:49;;;;;;;4.43;2.58;;;;;;;;;;5090606;28;20115;-79
2021/08/22 04:57:15;;;;;;;4.85;2.47;;;;;;;;;;5090272;28;20031;-79
2021/08/22 04:59:41;;;;;;;6.38;2.70;;;;;;;;;;5091693;28;20047;-79
2021/08/22 05:02:07;;;;;;;4.68;2.50;;;;;;;;;;5091730;28;20059;-78
2021/08/22 05:04:34;;;;;;;6.07;2.85;;;;;;;;;;5091494;28;20903;-79
2021/08/22 05:07:00;;;;;;;5.30;2.80;;;;;;;;;;5090290;28;20028;-79
2021/08/22 05:09:26;;;;;;;5.60;2.75;;;;;;;;;;5089963;28;20022;-79
2021/08/22 05:11:52;;;;;;;8.35;2.63;;;;;;;;;;5089844;28;20035;-79
2021/08/22 05:14:18;;;;;;;7.75;3.15;;;;;;;;;;5090463;28;20024;-78
2021/08/22 05:16:44;;;;;;;4.68;2.50;;;;;;;;;;5091781;28;20020;-78
2021/08/22 05:19:10;;;;;;;4.82;2.50;;;;;;;;;;5091483;28;20139;-77
2021/08/22 05:21:36;;;;;;;3.97;2.40;;;;;;;;;;5090334;28;20043;-77
2021/08/22 05:24:02;;;;;;;5.32;2.67;;;;;;;;;;5091877;28;20030;-78
2021/08/22 05:26:28;;;;;;;6.05;2.70;;;;;;;;;;5095393;28;20023;-77
2021/08/22 05:28:54;;;;;;;7.18;3.22;;;;;;;;;;5095395;28;20101;-78
2021/08/22 05:31:21;;;;;;;7.75;2.88;;;;;;;;;;5082245;28;20064;-78
2021/08/22 05:33:47;;;;;;;5.63;2.75;;;;;;;;;;5074988;28;20020;-78
2021/08/22 05:36:17;;;;;;;6.57;3.05;;;;;;;;;;5075102;28;20495;-77
2021/08/22 05:38:43;;;;;;;4.72;2.70;;;;;;;;;;5073914;28;20403;-78
2021/08/22 05:41:09;;;;;;;8.93;2.97;;;;;;;;;;5073533;28;20460;-78
2021/08/22 05:43:35;;;;;;;5.20;2.40;;;;;;;;;;5075084;28;20040;-78
2021/08/22 05:46:01;;;;;;;5.60;3.10;;;;;;;;;;5075052;28;20028;-77
2021/08/22 05:48:27;;;;;;;4.20;2.45;;;;;;;;;;5074571;28;20021;-78
2021/08/22 05:50:53;;;;;;;5.20;2.97;;;;;;;;;;5073404;28;20024;-77
2021/08/22 05:53:19;;;;;;;6.63;3.47;;;;;;;;;;5074750;28;20131;-78
2021/08/22 05:55:45;;;;;;;6.22;3.35;;;;;;;;;;5075896;28;20300;-81
2021/08/22 05:58:11;;;;;;;5.43;2.80;;;;;;;;;;5075046;28;20021;-81
2021/08/22 06:00:38;;;;;;;4.45;2.67;;;;;;;;;;5075448;28;20081;-81
2021/08/22 06:03:04;;;;;;;6.78;3.25;;;;;;;;;;5075381;28;20476;-82
2021/08/22 06:05:30;;;;;;;9.43;3.30;;;;;;;;;;5075164;28;20059;-81
2021/08/22 06:07:56;;;;;;;7.40;3.00;;;;;;;;;;5074714;28;20501;-81
2021/08/22 06:10:23;;;;;;;5.80;3.08;;;;;;;;;;5073064;28;20083;-81
2021/08/22 06:12:49;;;;;;;7.43;2.83;;;;;;;;;;5074332;28;20036;-79
2021/08/22 06:15:15;;;;;;;8.93;3.33;;;;;;;;;;5072751;28;20433;-79
2021/08/22 06:17:41;;;;;;;5.80;2.47;;;;;;;;;;5074438;28;20024;-78
2021/08/22 06:20:07;;;;;;;5.90;3.50;;;;;;;;;;5073217;28;20032;-78
2021/08/22 06:22:33;;;;;;;5.55;3.15;;;;;;;;;;5072804;28;20497;-78
2021/08/22 06:24:59;;;;;;;5.20;3.03;;;;;;;;;;5072903;28;20472;-78
2021/08/22 06:27:25;;;;;;;5.28;3.08;;;;;;;;;;5072843;28;20020;-78
2021/08/22 06:29:51;;;;;;;5.47;3.10;;;;;;;;;;5071517;28;20044;-78
2021/08/22 06:32:17;;;;;;;6.72;3.25;;;;;;;;;;5074160;28;20078;-78
2021/08/22 06:34:43;;;;;;;6.95;2.92;;;;;;;;;;5072515;28;20028;-78
2021/08/22 06:37:09;;;;;;;5.35;3.25;;;;;;;;;;5073689;28;20103;-78
2021/08/22 06:39:41;;;;;;;6.32;3.05;;;;;;;;;;5072827;28;20020;-78
2021/08/22 06:42:07;;;;;;;5.55;3.10;;;;;;;;;;5074238;28;20046;-78
2021/08/22 06:44:33;;;;;;;5.57;3.20;;;;;;;;;;5074347;28;20395;-78
2021/08/22 06:46:59;;;;;;;6.22;3.17;;;;;;;;;;5074072;28;20379;-78
2021/08/22 06:49:26;;;;;;;7.25;3.42;;;;;;;;;;5074236;28;20383;-79
2021/08/22 06:51:52;;;;;;;6.80;3.85;;;;;;;;;;5072188;28;20105;-79
2021/08/22 06:54:18;;;;;;;5.80;3.10;;;;;;;;;;5072191;28;20047;-79
2021/08/22 06:56:44;;;;;;;10.55;3.90;;;;;;;;;;5073905;28;20706;-79
2021/08/22 06:59:10;;;;;;;7.82;3.88;;;;;;;;;;5072391;28;20028;-79
2021/08/22 07:01:37;;;;;;;5.65;3.53;;;;;;;;;;5073911;28;20028;-80
2021/08/22 07:04:03;;;;;;;6.05;3.90;;;;;;;;;;5072559;28;20017;-79
2021/08/22 07:06:29;;;;;;;6.63;3.55;;;;;;;;;;5073950;28;20444;-79
2021/08/22 07:08:56;;;;;;;6.18;3.17;;;;;;;;;;5072542;28;20425;-80
2021/08/22 07:11:22;;;;;;;7.07;3.55;;;;;;;;;;5073754;28;20039;-79
2021/08/22 07:13:48;;;;;;;5.90;3.25;;;;;;;;;;5073722;28;20028;-80
2021/08/22 07:16:15;;;;;;;5.78;3.40;;;;;;;;;;5073430;28;20017;-79
2021/08/22 07:18:41;;;;;;;6.72;3.53;;;;;;;;;;5072219;28;20375;-79
2021/08/22 07:21:07;;;;;;;5.63;3.15;;;;;;;;;;5072432;28;20030;-79
2021/08/22 07:23:33;;;;;;;5.47;3.25;;;;;;;;;;5073495;28;20027;-79
2021/08/22 07:25:59;;;;;;;8.98;3.15;;;;;;;;;;5073563;28;20475;-79
2021/08/22 07:28:25;;;;;;;5.70;2.95;;;;;;;;;;5073409;28;20025;-79
2021/08/22 07:30:52;;;;;;;6.05;2.92;;;;;;;;;;5069007;28;20154;-79
2021/08/22 07:33:18;;;;;;;4.75;2.95;;;;;;;;;;5068583;28;20059;-78
2021/08/22 07:35:44;;;;;;;10.13;3.67;;;;;;;;;;5063736;28;20020;-79
2021/08/22 07:38:10;;;;;;;4.93;2.90;;;;;;;;;;5071622;28;20035;-80
2021/08/22 07:40:37;;;;;;;6.13;3.35;;;;;;;;;;5072828;28;20375;-78
2021/08/22 07:43:03;;;;;;;5.30;3.03;;;;;;;;;;5072056;28;20032;-79
2021/08/22 07:45:29;;;;;;;6.28;3.08;;;;;;;;;;5073155;28;20028;-79
2021/08/22 07:47:55;;;;;;;5.30;3.05;;;;;;;;;;5072787;28;20410;-79
2021/08/22 07:50:21;;;;;;;6.70;3.88;;;;;;;;;;5071618;28;20429;-79
2021/08/22 07:52:47;;;;;;;4.82;2.83;;;;;;;;;;5071294;28;20523;-79
2021/08/22 07:55:13;;;;;;;5.97;3.30;;;;;;;;;;5072850;28;20048;-79
2021/08/22 07:57:39;;;;;;;7.45;3.50;;;;;;;;;;5072753;28;20031;-79
2021/08/22 08:00:06;;;;;;;4.85;3.08;;;;;;;;;;5072646;28;20025;-79
2021/08/22 08:02:32;;;;;;;6.15;2.90;;;;;;;;;;5071573;28;20032;-79
2021/08/22 08:04:58;;;;;;;5.72;3.30;;;;;;;;;;5071491;28;20048;-80
2021/08/22 08:07:24;;;;;;;6.30;2.75;;;;;;;;;;5071323;28;20035;-78
2021/08/22 08:09:50;;;;;;;6.53;3.42;;;;;;;;;;5071059;28;20017;-79
2021/08/22 08:12:16;;;;;;;6.72;3.08;;;;;;;;;;5072637;28;20607;-79
2021/08/22 08:17:27;;;;;;;6.15;3.22;;;;;;;;;;5072893;28;20553;-79
2021/08/22 08:19:53;;;;;;;5.93;3.30;;;;;;;;;;5071344;28;20024;-79
2021/08/22 08:22:19;;;;;;;5.53;3.45;;;;;;;;;;5071528;28;20024;-78
2021/08/22 08:24:46;;;;;;;6.80;3.55;;;;;;;;;;5071276;28;20032;-79
2021/08/22 08:27:12;;;;;;;5.32;3.25;;;;;;;;;;5071352;28;20021;-78
2021/08/22 08:29:38;;;;;;;5.65;3.10;;;;;;;;;;5071172;28;20075;-78
2021/08/22 08:32:05;;;;;;;5.22;3.30;;;;;;;;;;5072207;28;20062;-79
2021/08/22 08:34:31;;;;;;;6.07;3.72;;;;;;;;;;5072392;28;20025;-78
2021/08/22 08:36:57;;;;;;;7.50;3.65;;;;;;;;;;5071018;28;20020;-79
2021/08/22 08:39:23;;;;;;;5.78;3.63;;;;;;;;;;5070979;28;20031;-79
2021/08/22 08:41:49;;;;;;;5.88;3.17;;;;;;;;;;5070799;28;20021;-79
2021/08/22 08:44:15;;;;;;;5.53;3.15;;;;;;;;;;5072188;28;20391;-78
2021/08/22 08:46:51;;;;;;;5.75;2.92;;;;;;;;;;5071236;28;20353;-78
2021/08/22 08:49:30;;;;;;;5.93;3.20;;;;;;;;;;5072109;28;20017;-78
2021/08/22 08:51:56;;;;;;;5.40;3.20;;;;;;;;;;5070510;28;20056;-78
2021/08/22 08:54:37;;;;;;;5.63;3.53;;;;;;;;;;5072194;28;20055;-79
2021/08/22 08:57:04;;;;;;;5.78;3.08;;;;;;;;;;5072211;28;20028;-78
2021/08/22 08:59:32;;;;;;;6.25;3.60;;;;;;;;;;5071754;28;20017;-79
2021/08/22 09:01:58;;;;;;;5.90;3.30;;;;;;;;;;5072054;28;20021;-79
2021/08/22 09:04:27;;;;;;;5.53;3.10;;;;;;;;;;5072169;28;20027;-79
2021/08/22 09:07:12;;;;;;;4.50;3.10;;;;;;;;;;5070703;28;20036;-79
2021/08/22 09:09:57;;;;;;;5.75;2.55;;;;;;;;;;5070663;28;20083;-78
2021/08/22 09:12:23;;;;;;;7.03;3.30;;;;;;;;;;5070609;28;20109;-77
2021/08/22 09:15:08;;;;;;;4.50;2.83;;;;;;;;;;5071797;28;20414;-77
2021/08/22 09:17:40;;;;;;;5.82;3.17;;;;;;;;;;5071824;28;20021;-78
2021/08/22 09:20:09;;;;;;;5.70;3.17;;;;;;;;;;5071951;28;20024;-79
2021/08/22 09:23:07;;;;;;;5.53;3.10;;;;;;;;;;5070511;28;20033;-79
2021/08/22 09:25:37;;;;;;;5.88;3.22;;;;;;;;;;5047912;28;20093;-79
2021/08/22 09:28:21;;;;;;;4.95;2.45;;;;;;;;;;5070226;28;20090;-79
2021/08/22 09:30:48;;;;;;;5.05;2.65;;;;;;;;;;5071831;28;20013;-79
2021/08/22 09:33:33;;;;;;;4.70;2.88;;;;;;;;;;5071698;28;20036;-79
2021/08/22 09:35:59;;;;;;;4.70;2.85;;;;;;;;;;5071895;28;20067;-79
2021/08/22 09:38:37;;;;;;;5.75;2.97;;;;;;;;;;5070456;28;20380;-79
2021/08/22 09:41:22;;;;;;;5.00;2.78;;;;;;;;;;5070434;28;20029;-79
2021/08/22 09:44:06;;;;;;;5.20;2.70;;;;;;;;;;5071530;28;20029;-79
2021/08/22 09:46:53;;;;;;;4.63;2.80;;;;;;;;;;5070101;28;20067;-79
2021/08/22 09:49:37;;;;;;;5.18;2.97;;;;;;;;;;5071610;28;20052;-79
2021/08/22 09:52:22;;;;;;;4.60;2.63;;;;;;;;;;5069977;28;20531;-79
2021/08/22 09:54:51;;;;;;;5.38;2.53;;;;;;;;;;5070335;28;20017;-79
2021/08/22 09:57:38;;;;;;;5.97;2.83;;;;;;;;;;5070199;28;20079;-78
2021/08/22 10:00:23;;;;;;;6.80;2.60;;;;;;;;;;5071626;28;20036;-79
2021/08/22 10:03:04;;;;;;;4.95;2.80;;;;;;;;;;5071638;28;20028;-79
2021/08/22 10:05:30;;;;;;;4.55;2.78;;;;;;;;;;5070065;28;20020;-79
2021/08/22 10:07:59;;;;;;;5.20;2.92;;;;;;;;;;5070095;28;20025;-78
2021/08/22 10:10:29;;;;;;;4.63;2.45;;;;;;;;;;5086990;28;20155;-79
2021/08/22 10:12:55;;;;;;;4.68;2.63;;;;;;;;;;5074850;28;20043;-79
2021/08/22 10:15:21;;;;;;;4.28;2.42;;;;;;;;;;5090543;28;20483;-79
2021/08/22 10:17:48;;;;;;;5.40;2.80;;;;;;;;;;5090401;28;20036;-78
2021/08/22 10:20:15;;;;;;;4.63;2.65;;;;;;;;;;5090480;28;20495;-79
2021/08/22 10:22:41;;;;;;;6.85;2.53;;;;;;;;;;5090357;28;20097;-79
2021/08/22 10:25:12;;;;;;;4.72;2.50;;;;;;;;;;5090534;28;20078;-80
2021/08/22 10:27:44;;;;;;;5.72;2.63;;;;;;;;;;5090282;28;20055;-79
2021/08/22 10:30:14;;;;;;;4.80;2.72;;;;;;;;;;5088923;28;20055;-79
2021/08/22 10:32:59;;;;;;;4.20;2.50;;;;;;;;;;5074930;28;20059;-79
2021/08/22 10:35:29;;;;;;;5.63;3.38;;;;;;;;;;5073414;28;20476;-78
2021/08/22 10:37:55;;;;;;;4.53;2.67;;;;;;;;;;5074303;28;20082;-79
2021/08/22 10:40:30;;;;;;;4.88;2.60;;;;;;;;;;5073181;28;20118;-78
2021/08/22 10:43:05;;;;;;;5.03;2.53;;;;;;;;;;5072917;28;20422;-79
2021/08/22 10:45:40;;;;;;;5.38;3.03;;;;;;;;;;5073789;28;20020;-79
2021/08/22 10:48:27;;;;;;;4.97;2.50;;;;;;;;;;5073763;28;20380;-79
2021/08/22 10:51:04;;;;;;;14.63;2.47;;;;;;;;;;5062487;28;20078;-77
2021/08/22 10:53:31;;;;;;;7.78;2.67;;;;;;;;;;5072963;28;20102;-76
2021/08/22 10:55:57;;;;;;;6.28;2.58;;;;;;;;;;5072770;28;20090;-75
2021/08/22 10:58:42;;;;;;;6.53;2.58;;;;;;;;;;5073091;28;20092;-77
2021/08/22 11:01:18;;;;;;;5.03;2.40;;;;;;;;;;5073911;28;20108;-78
2021/08/22 11:04:00;;;;;;;5.55;2.60;;;;;;;;;;5070859;28;20103;-78
2021/08/22 11:06:26;;;;;;;5.50;2.58;;;;;;;;;;5071469;28;20108;-81
2021/08/22 11:08:52;;;;;;;8.52;2.63;;;;;;;;;;5082995;28;20050;-80
2021/08/22 11:11:18;;;;;;;4.43;2.20;;;;;;;;;;5063774;28;20111;-80
2021/08/22 11:13:57;;;;;;;5.75;2.20;;;;;;;;;;5073300;28;20032;-80
2021/08/22 11:16:40;;;;;;;6.88;2.55;;;;;;;;;;5072055;28;20048;-81
2021/08/22 11:19:06;;;;;;;7.35;2.72;;;;;;;;;;5073323;28;20070;-80
2021/08/22 11:21:33;;;;;;;3.97;2.30;;;;;;;;;;5073184;28;20029;-78
2021/08/22 11:24:00;;;;;;;5.30;2.40;;;;;;;;;;5073214;28;20072;-79
2021/08/22 11:26:26;;;;;;;6.28;3.50;;;;;;;;;;5073110;28;20017;-78
2021/08/22 11:28:56;;;;;;;6.60;2.80;;;;;;;;;;5072983;28;20024;-80
2021/08/22 11:31:23;;;;;;;5.30;2.70;;;;;;;;;;5086124;28;20501;-79
2021/08/22 11:33:49;;;;;;;6.82;3.25;;;;;;;;;;5092165;28;20046;-80
2021/08/22 11:36:15;;;;;;;4.68;2.60;;;;;;;;;;5065234;28;20167;-80
2021/08/22 11:38:41;;;;;;;4.15;2.47;;;;;;;;;;5052978;28;20020;-79
2021/08/22 11:41:08;;;;;;;5.22;2.85;;;;;;;;;;5053082;28;20071;-80
2021/08/22 11:43:34;;;;;;;5.22;2.90;;;;;;;;;;5053069;28;20017;-79
2021/08/22 11:46:00;;;;;;;4.13;2.22;;;;;;;;;;5051705;28;20026;-78
2021/08/22 11:48:27;;;;;;;4.60;2.75;;;;;;;;;;5053214;28;20033;-83
2021/08/22 11:50:59;;;;;;;8.43;3.22;;;;;;;;;;5052666;28;20017;-79
2021/08/22 11:53:29;;;;;;;7.30;3.40;;;;;;;;;;5053849;28;20047;-81
2021/08/22 11:55:55;;;;;;;7.00;3.10;;;;;;;;;;5055032;28;20017;-80
2021/08/22 11:58:21;;;;;;;7.47;2.85;;;;;;;;;;5051562;28;20036;-80
2021/08/22 12:00:51;;;;;;;6.80;2.70;;;;;;;;;;5051473;28;20112;-78
2021/08/22 12:03:17;;;;;;;5.55;3.08;;;;;;;;;;5051720;28;20021;-84
2021/08/22 12:05:54;;;;;;;5.65;3.33;;;;;;;;;;5053550;28;20380;-83
2021/08/22 12:08:20;;;;;;;7.78;3.55;;;;;;;;;;5051759;28;20116;-76
2021/08/22 12:10:46;;;;;;;7.72;3.08;;;;;;;;;;5067462;28;20489;-80
2021/08/22 12:13:16;;;;;;;5.55;3.05;;;;;;;;;;5072584;28;20040;-80
2021/08/22 12:15:43;;;;;;;8.63;2.90;;;;;;;;;;5072666;28;20024;-80
2021/08/22 12:18:29;;;;;;;6.25;3.30;;;;;;;;;;5072328;28;20024;-80
2021/08/22 12:21:04;;;;;;;6.00;3.33;;;;;;;;;;5070822;28;20044;-78
2021/08/22 12:23:32;;;;;;;8.05;3.28;;;;;;;;;;5072045;28;20480;-80
2021/08/22 12:26:17;;;;;;;5.03;3.20;;;;;;;;;;5070688;28;20024;-79
2021/08/22 12:28:43;;;;;;;6.22;2.67;;;;;;;;;;5070756;28;20387;-80
2021/08/22 12:31:10;;;;;;;5.05;2.85;;;;;;;;;;5072139;28;20017;-81
2021/08/22 12:33:38;;;;;;;7.38;3.00;;;;;;;;;;5071744;28;20430;-80
2021/08/22 12:36:12;;;;;;;5.00;2.75;;;;;;;;;;5071000;28;20505;-81
2021/08/22 12:38:41;;;;;;;5.13;2.88;;;;;;;;;;5070724;28;20383;-78
2021/08/22 12:41:26;;;;;;;5.25;2.80;;;;;;;;;;5070794;28;20054;-80
2021/08/22 12:43:53;;;;;;;6.50;2.58;;;;;;;;;;5070812;28;20048;-78
2021/08/22 12:46:29;;;;;;;5.15;2.80;;;;;;;;;;5070616;28;20024;-78
2021/08/22 12:48:56;;;;;;;5.80;2.60;;;;;;;;;;5070529;28;20070;-78
2021/08/22 12:51:22;;;;;;;7.43;3.22;;;;;;;;;;5071304;28;20052;-79
2021/08/22 12:53:49;;;;;;;9.95;3.20;;;;;;;;;;5071577;28;20039;-80
2021/08/22 12:56:16;;;;;;;5.28;2.90;;;;;;;;;;5071059;28;20047;-81
2021/08/22 12:58:43;;;;;;;6.22;2.92;;;;;;;;;;5087593;28;20028;-81
2021/08/22 13:01:09;;;;;;;4.85;2.95;;;;;;;;;;5071991;28;20150;-80
2021/08/22 13:03:35;;;;;;;5.85;3.05;;;;;;;;;;5071888;28;20021;-80
2021/08/22 13:06:01;;;;;;;7.55;3.05;;;;;;;;;;5072058;28;20480;-78
2021/08/22 13:08:27;;;;;;;7.85;2.75;;;;;;;;;;5070543;28;20024;-79
2021/08/22 13:10:53;;;;;;;7.60;3.20;;;;;;;;;;5071755;28;20029;-79
2021/08/22 13:13:19;;;;;;;5.65;3.35;;;;;;;;;;5071018;28;20029;-80
2021/08/22 13:15:45;;;;;;;5.65;2.70;;;;;;;;;;5070617;28;20062;-79
2021/08/22 13:18:12;;;;;;;5.70;2.70;;;;;;;;;;5071010;28;20032;-79
2021/08/22 13:20:38;;;;;;;5.30;2.75;;;;;;;;;;5071942;28;20017;-79
2021/08/22 13:23:04;;;;;;;6.70;3.22;;;;;;;;;;5071840;28;20032;-78
2021/08/22 13:25:31;;;;;;;6.03;3.35;;;;;;;;;;5070412;28;20371;-78
2021/08/22 13:27:57;;;;;;;5.90;3.22;;;;;;;;;;5071741;28;20019;-78
2021/08/22 13:30:23;;;;;;;6.60;3.33;;;;;;;;;;5070765;28;20064;-80
2021/08/22 13:32:50;;;;;;;6.78;3.67;;;;;;;;;;5069637;28;20032;-79
2021/08/22 13:35:16;;;;;;;5.88;3.00;;;;;;;;;;5067262;28;20040;-79
2021/08/22 13:37:42;;;;;;;6.72;3.28;;;;;;;;;;5070112;28;20024;-79
2021/08/22 13:40:08;;;;;;;16.83;3.38;;;;;;;;;;5071301;28;20024;-80
2021/08/22 13:42:34;;;;;;;7.70;3.38;;;;;;;;;;5070817;28;20021;-76
2021/08/22 13:45:00;;;;;;;12.27;3.45;;;;;;;;;;5058373;28;20028;-78
2021/08/22 13:47:26;;;;;;;9.48;3.30;;;;;;;;;;5058706;28;20506;-78
2021/08/22 13:49:52;;;;;;;8.13;3.35;;;;;;;;;;5069696;28;20392;-79
2021/08/22 13:52:18;;;;;;;6.50;2.50;;;;;;;;;;5072576;28;20139;-75
2021/08/22 13:54:45;;;;;;;6.43;4.03;;;;;;;;;;5073219;28;20025;-75
2021/08/22 13:57:11;;;;;;;5.68;3.20;;;;;;;;;;5074554;28;20032;-75
2021/08/22 13:59:37;;;;;;;10.15;3.40;;;;;;;;;;5067412;28;20078;-75
2021/08/22 14:02:04;;;;;;;8.07;3.42;;;;;;;;;;5071610;28;20052;-75
2021/08/22 14:04:30;;;;;;;5.35;3.30;;;;;;;;;;5067653;28;20035;-76
2021/08/22 14:06:56;;;;;;;6.85;3.60;;;;;;;;;;5064790;28;20013;-75
2021/08/22 14:09:22;;;;;;;4.68;2.72;;;;;;;;;;5073040;28;20024;-75
2021/08/22 14:11:48;;;;;;;6.55;3.10;;;;;;;;;;5067116;28;20033;-76
2021/08/22 14:14:14;;;;;;;6.40;3.28;;;;;;;;;;5064870;28;20435;-75
2021/08/22 14:16:42;;;;;;;4.97;2.92;;;;;;;;;;5074304;28;20023;-76
2021/08/22 14:19:08;;;;;;;6.25;3.25;;;;;;;;;;5072944;28;20427;-75
2021/08/22 14:21:35;;;;;;;8.02;3.58;;;;;;;;;;5072196;28;20043;-75
2021/08/22 14:24:01;;;;;;;6.40;3.53;;;;;;;;;;5074766;28;20158;-76
2021/08/22 14:26:27;;;;;;;5.50;2.92;;;;;;;;;;5074431;28;20039;-77
2021/08/22 14:28:53;;;;;;;8.25;3.40;;;;;;;;;;5072246;28;20027;-73
2021/08/22 14:31:19;;;;;;;7.65;3.20;;;;;;;;;;5074440;28;20112;-74
2021/08/22 14:33:45;;;;;;;5.22;2.90;;;;;;;;;;5074522;28;20084;-73
2021/08/22 14:36:12;;;;;;;7.90;2.78;;;;;;;;;;5072900;28;20730;-72
2021/08/22 14:38:38;;;;;;;5.70;3.00;;;;;;;;;;5072828;28;20039;-73
2021/08/22 14:41:04;;;;;;;7.25;2.90;;;;;;;;;;5074226;28;20368;-73
2021/08/22 14:43:30;;;;;;;10.60;3.50;;;;;;;;;;5074121;28;20056;-73
2021/08/22 14:45:56;;;;;;;7.10;3.15;;;;;;;;;;5073503;28;20036;-73
2021/08/22 14:48:22;;;;;;;10.30;3.40;;;;;;;;;;5072972;28;20028;-74
2021/08/22 14:50:48;;;;;;;8.23;3.42;;;;;;;;;;5073657;28;20094;-74